Terminal Aerodrome Forecast
Issued by NWS

Home | Current Version | Previous Version | Text Only | Print | Product List | Glossary On
Versions: 1 2 3 4 5 6 7 8 9 10 11 12 13 14 15 16 17 18 19 20 21 22 23 24 25 26 27 28 29 30 31 32 33 34 35 36 37 38 39 40 41 42 43 44 45 46 47 48 49 50
000
FTUS45 KSLC 082327
TAFLGU
TAF
KLGU 082327Z 0900/0924 VRB03KT 4SM BR FEW005 SCT020
     FM090200 15004KT 2SM BR SCT008
     FM090300 00000KT 1/4SM FZFG VV001
     FM091800 35004KT 2SM BR SCT005=

USA.gov is the U.S. government's official web portal to all federal, state and local government web resources and services.